sensor_id;sensor_type;location;lat;lon;timestamp;P1;durP1;ratioP1;P2;durP2;ratioP2
78752;SDS011;68072;51.688;7.842;2024-01-07T00:02:24;23.00;;;9.30;;
78752;SDS011;68072;51.688;7.842;2024-01-07T00:04:49;23.13;;;8.77;;
78752;SDS011;68072;51.688;7.842;2024-01-07T00:07:15;16.63;;;6.97;;
78752;SDS011;68072;51.688;7.842;2024-01-07T00:09:40;18.27;;;8.37;;
78752;SDS011;68072;51.688;7.842;2024-01-07T00:12:05;14.20;;;6.87;;
78752;SDS011;68072;51.688;7.842;2024-01-07T00:14:31;14.05;;;7.28;;
78752;SDS011;68072;51.688;7.842;2024-01-07T00:16:56;15.53;;;7.97;;
78752;SDS011;68072;51.688;7.842;2024-01-07T00:19:21;20.77;;;9.43;;
78752;SDS011;68072;51.688;7.842;2024-01-07T00:21:46;19.50;;;7.50;;
78752;SDS011;68072;51.688;7.842;2024-01-07T00:24:12;16.73;;;7.23;;
78752;SDS011;68072;51.688;7.842;2024-01-07T00:26:37;14.43;;;7.50;;
78752;SDS011;68072;51.688;7.842;2024-01-07T00:29:02;21.93;;;8.63;;
78752;SDS011;68072;51.688;7.842;2024-01-07T00:31:27;18.70;;;9.60;;
78752;SDS011;68072;51.688;7.842;2024-01-07T00:33:53;15.70;;;7.50;;
78752;SDS011;68072;51.688;7.842;2024-01-07T00:36:18;20.07;;;7.87;;
78752;SDS011;68072;51.688;7.842;2024-01-07T00:38:43;21.17;;;9.63;;
78752;SDS011;68072;51.688;7.842;2024-01-07T00:41:08;15.17;;;8.20;;
78752;SDS011;68072;51.688;7.842;2024-01-07T00:43:34;17.03;;;8.20;;
78752;SDS011;68072;51.688;7.842;2024-01-07T00:45:59;18.73;;;7.43;;
78752;SDS011;68072;51.688;7.842;2024-01-07T00:48:24;16.60;;;8.30;;
78752;SDS011;68072;51.688;7.842;2024-01-07T00:50:49;17.40;;;8.43;;
78752;SDS011;68072;51.688;7.842;2024-01-07T00:53:15;14.27;;;7.60;;
78752;SDS011;68072;51.688;7.842;2024-01-07T00:55:40;13.80;;;6.33;;
78752;SDS011;68072;51.688;7.842;2024-01-07T00:58:05;15.73;;;7.87;;
78752;SDS011;68072;51.688;7.842;2024-01-07T01:00:30;19.20;;;9.40;;
78752;SDS011;68072;51.688;7.842;2024-01-07T01:02:56;16.83;;;9.07;;
78752;SDS011;68072;51.688;7.842;2024-01-07T01:05:21;10.13;;;5.65;;
78752;SDS011;68072;51.688;7.842;2024-01-07T01:07:46;17.47;;;7.77;;
78752;SDS011;68072;51.688;7.842;2024-01-07T01:10:12;14.77;;;7.07;;
78752;SDS011;68072;51.688;7.842;2024-01-07T01:12:38;13.82;;;6.55;;
78752;SDS011;68072;51.688;7.842;2024-01-07T01:15:03;17.67;;;8.07;;
78752;SDS011;68072;51.688;7.842;2024-01-07T01:17:29;13.95;;;6.85;;
78752;SDS011;68072;51.688;7.842;2024-01-07T01:19:54;13.87;;;7.13;;
78752;SDS011;68072;51.688;7.842;2024-01-07T01:22:19;15.00;;;8.37;;
78752;SDS011;68072;51.688;7.842;2024-01-07T01:24:44;13.43;;;7.17;;
78752;SDS011;68072;51.688;7.842;2024-01-07T01:27:11;18.15;;;7.75;;
78752;SDS011;68072;51.688;7.842;2024-01-07T01:29:36;11.35;;;6.57;;
78752;SDS011;68072;51.688;7.842;2024-01-07T01:32:01;10.80;;;6.80;;
78752;SDS011;68072;51.688;7.842;2024-01-07T01:34:27;18.47;;;7.73;;
78752;SDS011;68072;51.688;7.842;2024-01-07T01:36:52;15.53;;;7.83;;
78752;SDS011;68072;51.688;7.842;2024-01-07T01:39:17;15.68;;;8.20;;
78752;SDS011;68072;51.688;7.842;2024-01-07T01:41:43;17.30;;;7.93;;
78752;SDS011;68072;51.688;7.842;2024-01-07T01:44:08;9.40;;;5.43;;
78752;SDS011;68072;51.688;7.842;2024-01-07T01:46:33;16.53;;;9.03;;
78752;SDS011;68072;51.688;7.842;2024-01-07T01:48:59;10.95;;;6.65;;
78752;SDS011;68072;51.688;7.842;2024-01-07T01:51:24;13.45;;;6.70;;
78752;SDS011;68072;51.688;7.842;2024-01-07T01:53:50;15.00;;;8.40;;
78752;SDS011;68072;51.688;7.842;2024-01-07T01:56:16;15.05;;;8.00;;
78752;SDS011;68072;51.688;7.842;2024-01-07T01:58:42;16.92;;;8.38;;
78752;SDS011;68072;51.688;7.842;2024-01-07T02:01:07;15.10;;;7.35;;
78752;SDS011;68072;51.688;7.842;2024-01-07T02:03:32;16.07;;;7.50;;
78752;SDS011;68072;51.688;7.842;2024-01-07T02:05:57;13.93;;;6.67;;
78752;SDS011;68072;51.688;7.842;2024-01-07T02:08:23;12.97;;;6.80;;
78752;SDS011;68072;51.688;7.842;2024-01-07T02:10:49;12.27;;;7.00;;
78752;SDS011;68072;51.688;7.842;2024-01-07T02:13:14;15.63;;;8.13;;
78752;SDS011;68072;51.688;7.842;2024-01-07T02:15:40;13.97;;;7.23;;
78752;SDS011;68072;51.688;7.842;2024-01-07T02:18:05;18.80;;;8.43;;
78752;SDS011;68072;51.688;7.842;2024-01-07T02:20:30;13.20;;;7.73;;
78752;SDS011;68072;51.688;7.842;2024-01-07T02:22:55;12.60;;;6.87;;
78752;SDS011;68072;51.688;7.842;2024-01-07T02:25:23;17.90;;;7.57;;
78752;SDS011;68072;51.688;7.842;2024-01-07T02:27:48;13.82;;;7.78;;
78752;SDS011;68072;51.688;7.842;2024-01-07T02:30:13;9.30;;;6.10;;
78752;SDS011;68072;51.688;7.842;2024-01-07T02:32:39;13.63;;;8.07;;
78752;SDS011;68072;51.688;7.842;2024-01-07T02:35:04;13.95;;;7.13;;
78752;SDS011;68072;51.688;7.842;2024-01-07T02:37:30;18.58;;;7.90;;
78752;SDS011;68072;51.688;7.842;2024-01-07T02:39:55;13.30;;;6.07;;
78752;SDS011;68072;51.688;7.842;2024-01-07T02:42:21;16.23;;;6.90;;
78752;SDS011;68072;51.688;7.842;2024-01-07T02:44:46;17.63;;;7.20;;
78752;SDS011;68072;51.688;7.842;2024-01-07T02:47:11;11.00;;;6.43;;
78752;SDS011;68072;51.688;7.842;2024-01-07T02:49:36;11.17;;;5.80;;
78752;SDS011;68072;51.688;7.842;2024-01-07T02:52:01;13.40;;;7.80;;
78752;SDS011;68072;51.688;7.842;2024-01-07T02:54:27;12.37;;;7.40;;
78752;SDS011;68072;51.688;7.842;2024-01-07T02:56:52;14.83;;;6.17;;
78752;SDS011;68072;51.688;7.842;2024-01-07T02:59:17;15.73;;;8.13;;
78752;SDS011;68072;51.688;7.842;2024-01-07T03:01:42;11.13;;;6.27;;
78752;SDS011;68072;51.688;7.842;2024-01-07T03:04:09;17.00;;;8.03;;
78752;SDS011;68072;51.688;7.842;2024-01-07T03:06:35;13.65;;;7.05;;
78752;SDS011;68072;51.688;7.842;2024-01-07T03:09:00;15.13;;;7.40;;
78752;SDS011;68072;51.688;7.842;2024-01-07T03:11:25;11.60;;;6.07;;
78752;SDS011;68072;51.688;7.842;2024-01-07T03:13:51;8.00;;;5.83;;
78752;SDS011;68072;51.688;7.842;2024-01-07T03:16:22;14.67;;;5.73;;
78752;SDS011;68072;51.688;7.842;2024-01-07T03:18:48;9.82;;;5.25;;
78752;SDS011;68072;51.688;7.842;2024-01-07T03:21:19;8.97;;;5.67;;
78752;SDS011;68072;51.688;7.842;2024-01-07T03:23:45;9.38;;;5.95;;
78752;SDS011;68072;51.688;7.842;2024-01-07T03:26:10;12.23;;;6.85;;
78752;SDS011;68072;51.688;7.842;2024-01-07T03:28:36;13.10;;;6.33;;
78752;SDS011;68072;51.688;7.842;2024-01-07T03:31:18;11.80;;;6.07;;
78752;SDS011;68072;51.688;7.842;2024-01-07T03:33:43;10.57;;;6.00;;
78752;SDS011;68072;51.688;7.842;2024-01-07T03:36:13;14.80;;;7.90;;
78752;SDS011;68072;51.688;7.842;2024-01-07T03:38:39;11.50;;;6.47;;
78752;SDS011;68072;51.688;7.842;2024-01-07T03:41:04;10.68;;;6.07;;
78752;SDS011;68072;51.688;7.842;2024-01-07T03:43:30;12.00;;;6.50;;
78752;SDS011;68072;51.688;7.842;2024-01-07T03:45:55;13.50;;;6.72;;
78752;SDS011;68072;51.688;7.842;2024-01-07T03:48:20;9.90;;;5.57;;
78752;SDS011;68072;51.688;7.842;2024-01-07T03:50:45;12.90;;;6.80;;
78752;SDS011;68072;51.688;7.842;2024-01-07T03:53:11;11.87;;;6.37;;
78752;SDS011;68072;51.688;7.842;2024-01-07T03:55:36;19.83;;;8.00;;
78752;SDS011;68072;51.688;7.842;2024-01-07T03:58:01;13.93;;;6.30;;
78752;SDS011;68072;51.688;7.842;2024-01-07T04:00:27;15.00;;;7.05;;
78752;SDS011;68072;51.688;7.842;2024-01-07T04:02:52;11.80;;;6.60;;
78752;SDS011;68072;51.688;7.842;2024-01-07T04:05:17;11.53;;;6.27;;
78752;SDS011;68072;51.688;7.842;2024-01-07T04:07:43;12.40;;;7.28;;
78752;SDS011;68072;51.688;7.842;2024-01-07T04:10:08;17.53;;;7.03;;
78752;SDS011;68072;51.688;7.842;2024-01-07T04:12:33;11.55;;;6.53;;
78752;SDS011;68072;51.688;7.842;2024-01-07T04:14:58;13.50;;;7.07;;
78752;SDS011;68072;51.688;7.842;2024-01-07T04:17:24;10.23;;;5.57;;
78752;SDS011;68072;51.688;7.842;2024-01-07T04:19:49;12.63;;;7.03;;
78752;SDS011;68072;51.688;7.842;2024-01-07T04:22:14;14.20;;;7.57;;
78752;SDS011;68072;51.688;7.842;2024-01-07T04:24:43;9.73;;;5.20;;
78752;SDS011;68072;51.688;7.842;2024-01-07T04:27:08;13.73;;;7.60;;
78752;SDS011;68072;51.688;7.842;2024-01-07T04:29:33;16.33;;;6.60;;
78752;SDS011;68072;51.688;7.842;2024-01-07T04:31:59;13.93;;;6.80;;
78752;SDS011;68072;51.688;7.842;2024-01-07T04:34:24;15.10;;;7.17;;
78752;SDS011;68072;51.688;7.842;2024-01-07T04:36:50;8.95;;;5.20;;
78752;SDS011;68072;51.688;7.842;2024-01-07T04:39:16;12.63;;;6.78;;
78752;SDS011;68072;51.688;7.842;2024-01-07T04:41:41;11.05;;;7.20;;
78752;SDS011;68072;51.688;7.842;2024-01-07T04:44:06;11.80;;;6.90;;
78752;SDS011;68072;51.688;7.842;2024-01-07T04:46:37;10.30;;;6.33;;
78752;SDS011;68072;51.688;7.842;2024-01-07T04:49:02;12.55;;;7.07;;
78752;SDS011;68072;51.688;7.842;2024-01-07T04:51:28;14.53;;;6.87;;
78752;SDS011;68072;51.688;7.842;2024-01-07T04:53:53;14.07;;;8.37;;
78752;SDS011;68072;51.688;7.842;2024-01-07T04:56:18;10.50;;;7.27;;
78752;SDS011;68072;51.688;7.842;2024-01-07T04:58:43;14.00;;;6.97;;
78752;SDS011;68072;51.688;7.842;2024-01-07T05:01:08;10.47;;;4.67;;
78752;SDS011;68072;51.688;7.842;2024-01-07T05:03:34;12.00;;;6.77;;
78752;SDS011;68072;51.688;7.842;2024-01-07T05:06:00;8.35;;;5.38;;
78752;SDS011;68072;51.688;7.842;2024-01-07T05:08:27;18.50;;;8.90;;
78752;SDS011;68072;51.688;7.842;2024-01-07T05:10:52;16.13;;;8.00;;
78752;SDS011;68072;51.688;7.842;2024-01-07T05:13:17;12.90;;;6.63;;
78752;SDS011;68072;51.688;7.842;2024-01-07T05:15:42;15.37;;;7.10;;
78752;SDS011;68072;51.688;7.842;2024-01-07T05:18:07;13.70;;;6.97;;
78752;SDS011;68072;51.688;7.842;2024-01-07T05:20:34;13.13;;;7.40;;
78752;SDS011;68072;51.688;7.842;2024-01-07T05:22:59;14.43;;;7.27;;
78752;SDS011;68072;51.688;7.842;2024-01-07T05:25:24;15.10;;;8.20;;
78752;SDS011;68072;51.688;7.842;2024-01-07T05:27:50;12.73;;;6.37;;
78752;SDS011;68072;51.688;7.842;2024-01-07T05:30:15;7.10;;;4.37;;
78752;SDS011;68072;51.688;7.842;2024-01-07T05:32:40;12.27;;;6.60;;
78752;SDS011;68072;51.688;7.842;2024-01-07T05:35:05;19.70;;;8.77;;
78752;SDS011;68072;51.688;7.842;2024-01-07T05:37:31;10.30;;;6.55;;
78752;SDS011;68072;51.688;7.842;2024-01-07T05:39:56;12.47;;;6.63;;
78752;SDS011;68072;51.688;7.842;2024-01-07T05:42:21;12.67;;;7.03;;
78752;SDS011;68072;51.688;7.842;2024-01-07T05:44:46;15.83;;;6.57;;
78752;SDS011;68072;51.688;7.842;2024-01-07T05:47:11;8.47;;;6.10;;
78752;SDS011;68072;51.688;7.842;2024-01-07T05:49:37;13.83;;;6.63;;
78752;SDS011;68072;51.688;7.842;2024-01-07T05:52:02;14.80;;;6.60;;
78752;SDS011;68072;51.688;7.842;2024-01-07T05:54:27;11.75;;;6.53;;
78752;SDS011;68072;51.688;7.842;2024-01-07T05:56:53;12.33;;;6.00;;
78752;SDS011;68072;51.688;7.842;2024-01-07T05:59:18;12.80;;;6.27;;
78752;SDS011;68072;51.688;7.842;2024-01-07T06:01:43;10.83;;;5.50;;
78752;SDS011;68072;51.688;7.842;2024-01-07T06:04:09;8.85;;;5.07;;
78752;SDS011;68072;51.688;7.842;2024-01-07T06:06:34;9.07;;;5.78;;
78752;SDS011;68072;51.688;7.842;2024-01-07T06:09:00;7.87;;;5.20;;
78752;SDS011;68072;51.688;7.842;2024-01-07T06:11:25;13.00;;;6.97;;
78752;SDS011;68072;51.688;7.842;2024-01-07T06:13:50;8.43;;;4.67;;
78752;SDS011;68072;51.688;7.842;2024-01-07T06:16:15;9.17;;;5.40;;
78752;SDS011;68072;51.688;7.842;2024-01-07T06:18:40;6.40;;;4.43;;
78752;SDS011;68072;51.688;7.842;2024-01-07T06:21:06;10.47;;;5.57;;
78752;SDS011;68072;51.688;7.842;2024-01-07T06:23:34;7.20;;;5.00;;
78752;SDS011;68072;51.688;7.842;2024-01-07T06:25:59;9.27;;;5.28;;
78752;SDS011;68072;51.688;7.842;2024-01-07T06:28:25;7.40;;;4.70;;
78752;SDS011;68072;51.688;7.842;2024-01-07T06:30:50;7.97;;;4.80;;
78752;SDS011;68072;51.688;7.842;2024-01-07T06:33:15;10.87;;;5.27;;
78752;SDS011;68072;51.688;7.842;2024-01-07T06:35:40;6.37;;;4.73;;
78752;SDS011;68072;51.688;7.842;2024-01-07T06:38:06;9.30;;;5.07;;
78752;SDS011;68072;51.688;7.842;2024-01-07T06:40:31;10.27;;;4.60;;
78752;SDS011;68072;51.688;7.842;2024-01-07T06:42:57;7.88;;;4.63;;
78752;SDS011;68072;51.688;7.842;2024-01-07T06:45:22;6.37;;;3.37;;
78752;SDS011;68072;51.688;7.842;2024-01-07T06:47:48;8.57;;;5.22;;
78752;SDS011;68072;51.688;7.842;2024-01-07T06:50:13;7.43;;;4.67;;
78752;SDS011;68072;51.688;7.842;2024-01-07T06:52:38;8.07;;;4.40;;
78752;SDS011;68072;51.688;7.842;2024-01-07T06:55:03;5.17;;;3.47;;
78752;SDS011;68072;51.688;7.842;2024-01-07T06:57:29;9.02;;;5.20;;
78752;SDS011;68072;51.688;7.842;2024-01-07T06:59:54;6.30;;;3.83;;
78752;SDS011;68072;51.688;7.842;2024-01-07T07:02:19;8.67;;;5.53;;
78752;SDS011;68072;51.688;7.842;2024-01-07T07:04:45;9.45;;;5.10;;
78752;SDS011;68072;51.688;7.842;2024-01-07T07:07:10;6.85;;;4.25;;
78752;SDS011;68072;51.688;7.842;2024-01-07T07:09:35;7.33;;;4.60;;
78752;SDS011;68072;51.688;7.842;2024-01-07T07:12:01;7.60;;;4.83;;
78752;SDS011;68072;51.688;7.842;2024-01-07T07:14:26;6.43;;;4.10;;
78752;SDS011;68072;51.688;7.842;2024-01-07T07:16:51;8.00;;;5.03;;
78752;SDS011;68072;51.688;7.842;2024-01-07T07:19:16;8.37;;;4.83;;
78752;SDS011;68072;51.688;7.842;2024-01-07T07:21:43;4.90;;;3.00;;
78752;SDS011;68072;51.688;7.842;2024-01-07T07:24:09;10.55;;;5.93;;
78752;SDS011;68072;51.688;7.842;2024-01-07T07:26:34;6.07;;;4.47;;
78752;SDS011;68072;51.688;7.842;2024-01-07T07:29:01;10.13;;;5.63;;
78752;SDS011;68072;51.688;7.842;2024-01-07T07:31:26;9.05;;;5.80;;
78752;SDS011;68072;51.688;7.842;2024-01-07T07:33:52;10.67;;;5.90;;
78752;SDS011;68072;51.688;7.842;2024-01-07T07:36:17;11.53;;;5.43;;
78752;SDS011;68072;51.688;7.842;2024-01-07T07:38:42;12.07;;;6.27;;
78752;SDS011;68072;51.688;7.842;2024-01-07T07:41:07;12.10;;;4.90;;
78752;SDS011;68072;51.688;7.842;2024-01-07T07:43:33;7.60;;;4.93;;
78752;SDS011;68072;51.688;7.842;2024-01-07T07:45:58;7.63;;;4.63;;
78752;SDS011;68072;51.688;7.842;2024-01-07T07:48:24;8.27;;;5.70;;
78752;SDS011;68072;51.688;7.842;2024-01-07T07:50:51;8.50;;;5.20;;
78752;SDS011;68072;51.688;7.842;2024-01-07T07:53:16;8.83;;;4.83;;
78752;SDS011;68072;51.688;7.842;2024-01-07T07:55:41;4.50;;;2.87;;
78752;SDS011;68072;51.688;7.842;2024-01-07T07:58:07;5.07;;;3.27;;
78752;SDS011;68072;51.688;7.842;2024-01-07T08:00:33;8.52;;;5.47;;
78752;SDS011;68072;51.688;7.842;2024-01-07T08:02:58;7.93;;;4.63;;
78752;SDS011;68072;51.688;7.842;2024-01-07T08:05:23;6.53;;;4.27;;
78752;SDS011;68072;51.688;7.842;2024-01-07T08:07:48;14.37;;;4.13;;
78752;SDS011;68072;51.688;7.842;2024-01-07T08:10:14;7.37;;;3.37;;
78752;SDS011;68072;51.688;7.842;2024-01-07T08:12:39;7.73;;;4.40;;
78752;SDS011;68072;51.688;7.842;2024-01-07T08:15:04;7.63;;;4.37;;
78752;SDS011;68072;51.688;7.842;2024-01-07T08:17:30;5.05;;;3.65;;
78752;SDS011;68072;51.688;7.842;2024-01-07T08:19:55;10.87;;;5.50;;
78752;SDS011;68072;51.688;7.842;2024-01-07T08:22:20;5.30;;;3.40;;
78752;SDS011;68072;51.688;7.842;2024-01-07T08:24:46;6.20;;;4.23;;
78752;SDS011;68072;51.688;7.842;2024-01-07T08:27:11;6.40;;;3.47;;
78752;SDS011;68072;51.688;7.842;2024-01-07T08:29:36;7.30;;;4.40;;
78752;SDS011;68072;51.688;7.842;2024-01-07T08:32:01;5.57;;;3.63;;
78752;SDS011;68072;51.688;7.842;2024-01-07T08:34:27;6.60;;;4.63;;
78752;SDS011;68072;51.688;7.842;2024-01-07T08:36:52;7.10;;;4.20;;
78752;SDS011;68072;51.688;7.842;2024-01-07T08:39:19;4.15;;;3.70;;
78752;SDS011;68072;51.688;7.842;2024-01-07T08:41:44;6.85;;;3.75;;
78752;SDS011;68072;51.688;7.842;2024-01-07T08:44:10;8.63;;;4.40;;
78752;SDS011;68072;51.688;7.842;2024-01-07T08:46:35;10.73;;;4.50;;
78752;SDS011;68072;51.688;7.842;2024-01-07T08:49:01;8.97;;;4.47;;
78752;SDS011;68072;51.688;7.842;2024-01-07T08:51:26;3.03;;;2.60;;
78752;SDS011;68072;51.688;7.842;2024-01-07T08:53:51;5.13;;;3.13;;
78752;SDS011;68072;51.688;7.842;2024-01-07T08:56:17;9.97;;;3.93;;
78752;SDS011;68072;51.688;7.842;2024-01-07T08:58:42;6.97;;;3.80;;
78752;SDS011;68072;51.688;7.842;2024-01-07T09:01:07;5.67;;;3.07;;
78752;SDS011;68072;51.688;7.842;2024-01-07T09:03:33;9.15;;;3.40;;
78752;SDS011;68072;51.688;7.842;2024-01-07T09:05:58;11.57;;;2.57;;
78752;SDS011;68072;51.688;7.842;2024-01-07T09:08:23;6.90;;;3.30;;
78752;SDS011;68072;51.688;7.842;2024-01-07T09:10:49;5.30;;;2.88;;
78752;SDS011;68072;51.688;7.842;2024-01-07T09:13:14;6.40;;;2.80;;
78752;SDS011;68072;51.688;7.842;2024-01-07T09:15:39;2.80;;;2.23;;
78752;SDS011;68072;51.688;7.842;2024-01-07T09:18:04;5.30;;;4.13;;
78752;SDS011;68072;51.688;7.842;2024-01-07T09:20:30;2.87;;;2.40;;
78752;SDS011;68072;51.688;7.842;2024-01-07T09:22:55;6.57;;;3.27;;
78752;SDS011;68072;51.688;7.842;2024-01-07T09:25:20;7.93;;;3.30;;
78752;SDS011;68072;51.688;7.842;2024-01-07T09:27:45;3.87;;;2.70;;
78752;SDS011;68072;51.688;7.842;2024-01-07T09:30:11;7.97;;;3.90;;
78752;SDS011;68072;51.688;7.842;2024-01-07T09:32:39;3.88;;;2.53;;
78752;SDS011;68072;51.688;7.842;2024-01-07T09:35:04;3.17;;;2.53;;
78752;SDS011;68072;51.688;7.842;2024-01-07T09:37:30;9.90;;;2.95;;
78752;SDS011;68072;51.688;7.842;2024-01-07T09:39:56;4.97;;;2.58;;
78752;SDS011;68072;51.688;7.842;2024-01-07T09:42:21;2.97;;;1.90;;
78752;SDS011;68072;51.688;7.842;2024-01-07T09:44:46;4.60;;;3.07;;
78752;SDS011;68072;51.688;7.842;2024-01-07T09:47:13;2.80;;;2.20;;
78752;SDS011;68072;51.688;7.842;2024-01-07T09:49:39;3.10;;;2.80;;
78752;SDS011;68072;51.688;7.842;2024-01-07T09:52:05;2.40;;;2.20;;
78752;SDS011;68072;51.688;7.842;2024-01-07T09:54:31;4.28;;;2.72;;
78752;SDS011;68072;51.688;7.842;2024-01-07T09:57:00;3.63;;;2.47;;
78752;SDS011;68072;51.688;7.842;2024-01-07T09:59:27;6.03;;;3.13;;
78752;SDS011;68072;51.688;7.842;2024-01-07T10:01:52;3.88;;;2.53;;
78752;SDS011;68072;51.688;7.842;2024-01-07T10:04:18;2.80;;;1.17;;
78752;SDS011;68072;51.688;7.842;2024-01-07T10:06:43;5.07;;;2.70;;
78752;SDS011;68072;51.688;7.842;2024-01-07T10:09:08;3.03;;;2.50;;
78752;SDS011;68072;51.688;7.842;2024-01-07T10:11:34;3.30;;;2.27;;
78752;SDS011;68072;51.688;7.842;2024-01-07T10:13:59;3.00;;;2.33;;
78752;SDS011;68072;51.688;7.842;2024-01-07T10:16:24;2.28;;;2.08;;
78752;SDS011;68072;51.688;7.842;2024-01-07T10:18:50;3.67;;;2.57;;
78752;SDS011;68072;51.688;7.842;2024-01-07T10:21:15;2.57;;;2.03;;
78752;SDS011;68072;51.688;7.842;2024-01-07T10:23:40;1.90;;;1.80;;
78752;SDS011;68072;51.688;7.842;2024-01-07T10:26:06;3.78;;;2.63;;
78752;SDS011;68072;51.688;7.842;2024-01-07T10:28:32;3.10;;;2.58;;
78752;SDS011;68072;51.688;7.842;2024-01-07T10:30:57;2.67;;;2.10;;
78752;SDS011;68072;51.688;7.842;2024-01-07T10:33:22;3.93;;;2.50;;
78752;SDS011;68072;51.688;7.842;2024-01-07T10:35:56;2.08;;;1.77;;
78752;SDS011;68072;51.688;7.842;2024-01-07T10:38:22;2.42;;;2.08;;
78752;SDS011;68072;51.688;7.842;2024-01-07T10:40:47;2.95;;;2.22;;
78752;SDS011;68072;51.688;7.842;2024-01-07T10:43:15;2.33;;;1.83;;
78752;SDS011;68072;51.688;7.842;2024-01-07T10:45:40;2.28;;;1.98;;
78752;SDS011;68072;51.688;7.842;2024-01-07T10:48:05;1.90;;;1.70;;
78752;SDS011;68072;51.688;7.842;2024-01-07T10:50:32;2.97;;;1.67;;
78752;SDS011;68072;51.688;7.842;2024-01-07T10:52:58;1.07;;;0.90;;
78752;SDS011;68072;51.688;7.842;2024-01-07T10:55:29;4.90;;;1.52;;
78752;SDS011;68072;51.688;7.842;2024-01-07T10:57:57;2.08;;;1.42;;
78752;SDS011;68072;51.688;7.842;2024-01-07T11:00:22;2.53;;;1.85;;
78752;SDS011;68072;51.688;7.842;2024-01-07T11:02:53;1.70;;;1.50;;
78752;SDS011;68072;51.688;7.842;2024-01-07T11:05:23;1.98;;;1.88;;
78752;SDS011;68072;51.688;7.842;2024-01-07T11:10:50;2.40;;;1.73;;
78752;SDS011;68072;51.688;7.842;2024-01-07T11:13:31;2.85;;;2.17;;
78752;SDS011;68072;51.688;7.842;2024-01-07T11:15:56;2.95;;;1.58;;
78752;SDS011;68072;51.688;7.842;2024-01-07T11:18:22;2.13;;;1.48;;
78752;SDS011;68072;51.688;7.842;2024-01-07T11:20:48;1.20;;;1.20;;
78752;SDS011;68072;51.688;7.842;2024-01-07T11:26:05;1.90;;;1.52;;
78752;SDS011;68072;51.688;7.842;2024-01-07T11:31:11;2.03;;;1.80;;
78752;SDS011;68072;51.688;7.842;2024-01-07T11:33:37;2.00;;;1.83;;
78752;SDS011;68072;51.688;7.842;2024-01-07T11:36:02;5.38;;;2.15;;
78752;SDS011;68072;51.688;7.842;2024-01-07T11:38:28;2.00;;;1.80;;
78752;SDS011;68072;51.688;7.842;2024-01-07T11:40:54;1.63;;;1.53;;
78752;SDS011;68072;51.688;7.842;2024-01-07T11:43:20;3.92;;;1.20;;
78752;SDS011;68072;51.688;7.842;2024-01-07T11:45:45;1.30;;;1.20;;
78752;SDS011;68072;51.688;7.842;2024-01-07T11:48:11;1.40;;;1.27;;
78752;SDS011;68072;51.688;7.842;2024-01-07T11:50:36;1.03;;;1.00;;
78752;SDS011;68072;51.688;7.842;2024-01-07T11:53:01;2.07;;;1.70;;
78752;SDS011;68072;51.688;7.842;2024-01-07T11:55:27;1.70;;;1.60;;
78752;SDS011;68072;51.688;7.842;2024-01-07T11:57:54;1.17;;;0.93;;
78752;SDS011;68072;51.688;7.842;2024-01-07T12:00:20;2.00;;;1.77;;
78752;SDS011;68072;51.688;7.842;2024-01-07T12:02:45;5.57;;;1.50;;
78752;SDS011;68072;51.688;7.842;2024-01-07T12:05:11;1.45;;;1.35;;
78752;SDS011;68072;51.688;7.842;2024-01-07T12:07:37;4.90;;;1.85;;
78752;SDS011;68072;51.688;7.842;2024-01-07T12:10:03;4.17;;;1.60;;
78752;SDS011;68072;51.688;7.842;2024-01-07T12:12:31;3.47;;;1.67;;
78752;SDS011;68072;51.688;7.842;2024-01-07T12:14:57;1.87;;;1.53;;
78752;SDS011;68072;51.688;7.842;2024-01-07T12:17:23;1.50;;;1.40;;
78752;SDS011;68072;51.688;7.842;2024-01-07T12:19:49;2.60;;;1.30;;
78752;SDS011;68072;51.688;7.842;2024-01-07T12:22:14;1.85;;;1.40;;
78752;SDS011;68072;51.688;7.842;2024-01-07T12:24:42;4.35;;;1.80;;
78752;SDS011;68072;51.688;7.842;2024-01-07T12:27:08;3.97;;;1.65;;
78752;SDS011;68072;51.688;7.842;2024-01-07T12:29:33;1.67;;;1.53;;
78752;SDS011;68072;51.688;7.842;2024-01-07T12:31:59;1.60;;;1.50;;
78752;SDS011;68072;51.688;7.842;2024-01-07T12:34:25;1.88;;;1.63;;
78752;SDS011;68072;51.688;7.842;2024-01-07T12:36:50;1.97;;;1.70;;
78752;SDS011;68072;51.688;7.842;2024-01-07T12:39:16;1.27;;;1.17;;
78752;SDS011;68072;51.688;7.842;2024-01-07T12:41:41;9.67;;;1.70;;
78752;SDS011;68072;51.688;7.842;2024-01-07T12:44:07;2.83;;;1.23;;
78752;SDS011;68072;51.688;7.842;2024-01-07T12:46:33;2.35;;;1.70;;
78752;SDS011;68072;51.688;7.842;2024-01-07T12:48:58;2.63;;;1.60;;
78752;SDS011;68072;51.688;7.842;2024-01-07T12:51:23;2.03;;;1.30;;
78752;SDS011;68072;51.688;7.842;2024-01-07T12:53:49;2.90;;;1.80;;
78752;SDS011;68072;51.688;7.842;2024-01-07T12:56:14;1.17;;;1.10;;
78752;SDS011;68072;51.688;7.842;2024-01-07T12:58:39;1.63;;;1.53;;
78752;SDS011;68072;51.688;7.842;2024-01-07T13:01:05;4.68;;;2.15;;
78752;SDS011;68072;51.688;7.842;2024-01-07T13:03:30;1.83;;;1.50;;
78752;SDS011;68072;51.688;7.842;2024-01-07T13:05:55;1.90;;;1.53;;
78752;SDS011;68072;51.688;7.842;2024-01-07T13:08:21;0.47;;;0.47;;
78752;SDS011;68072;51.688;7.842;2024-01-07T13:10:51;1.02;;;1.02;;
78752;SDS011;68072;51.688;7.842;2024-01-07T13:13:16;0.77;;;0.77;;
78752;SDS011;68072;51.688;7.842;2024-01-07T13:15:42;1.35;;;1.25;;
78752;SDS011;68072;51.688;7.842;2024-01-07T13:18:08;1.60;;;1.50;;
78752;SDS011;68072;51.688;7.842;2024-01-07T13:20:33;3.77;;;1.37;;
78752;SDS011;68072;51.688;7.842;2024-01-07T13:23:00;1.85;;;1.50;;
78752;SDS011;68072;51.688;7.842;2024-01-07T13:25:26;1.38;;;1.17;;
78752;SDS011;68072;51.688;7.842;2024-01-07T13:27:51;0.83;;;0.83;;
78752;SDS011;68072;51.688;7.842;2024-01-07T13:30:16;1.05;;;0.95;;
78752;SDS011;68072;51.688;7.842;2024-01-07T13:32:42;1.55;;;1.20;;
78752;SDS011;68072;51.688;7.842;2024-01-07T13:35:07;0.80;;;0.80;;
78752;SDS011;68072;51.688;7.842;2024-01-07T13:37:36;0.98;;;0.98;;
78752;SDS011;68072;51.688;7.842;2024-01-07T13:40:01;2.53;;;1.15;;
78752;SDS011;68072;51.688;7.842;2024-01-07T13:42:26;1.05;;;1.05;;
78752;SDS011;68072;51.688;7.842;2024-01-07T13:44:52;1.33;;;1.23;;
78752;SDS011;68072;51.688;7.842;2024-01-07T13:47:17;1.37;;;1.10;;
78752;SDS011;68072;51.688;7.842;2024-01-07T13:49:42;1.08;;;1.08;;
78752;SDS011;68072;51.688;7.842;2024-01-07T13:54:35;1.13;;;1.02;;
78752;SDS011;68072;51.688;7.842;2024-01-07T13:57:00;2.30;;;1.77;;
78752;SDS011;68072;51.688;7.842;2024-01-07T13:59:26;1.40;;;1.37;;
78752;SDS011;68072;51.688;7.842;2024-01-07T14:01:51;1.10;;;1.07;;
78752;SDS011;68072;51.688;7.842;2024-01-07T14:04:16;1.55;;;1.45;;
78752;SDS011;68072;51.688;7.842;2024-01-07T14:06:42;1.57;;;1.37;;
78752;SDS011;68072;51.688;7.842;2024-01-07T14:09:08;1.25;;;1.10;;
78752;SDS011;68072;51.688;7.842;2024-01-07T14:11:34;6.77;;;1.70;;
78752;SDS011;68072;51.688;7.842;2024-01-07T14:14:00;1.13;;;1.10;;
78752;SDS011;68072;51.688;7.842;2024-01-07T14:16:26;1.67;;;1.45;;
78752;SDS011;68072;51.688;7.842;2024-01-07T14:18:52;1.40;;;1.30;;
78752;SDS011;68072;51.688;7.842;2024-01-07T14:21:17;1.03;;;0.93;;
78752;SDS011;68072;51.688;7.842;2024-01-07T14:23:42;1.40;;;0.87;;
78752;SDS011;68072;51.688;7.842;2024-01-07T14:26:07;1.77;;;1.02;;
78752;SDS011;68072;51.688;7.842;2024-01-07T14:28:33;1.23;;;1.10;;
78752;SDS011;68072;51.688;7.842;2024-01-07T14:30:58;1.30;;;1.13;;
78752;SDS011;68072;51.688;7.842;2024-01-07T14:33:23;2.80;;;1.60;;
78752;SDS011;68072;51.688;7.842;2024-01-07T14:35:49;0.63;;;0.63;;
78752;SDS011;68072;51.688;7.842;2024-01-07T14:38:14;0.75;;;0.75;;
78752;SDS011;68072;51.688;7.842;2024-01-07T14:40:39;1.83;;;1.37;;
78752;SDS011;68072;51.688;7.842;2024-01-07T14:43:06;1.60;;;1.10;;
78752;SDS011;68072;51.688;7.842;2024-01-07T14:45:31;0.90;;;0.90;;